createdAt,value
2022-11-16T00:05:28.674Z,97335.44
2022-11-16T00:05:44.683Z,97334.66
2022-11-16T00:08:21.086Z,97331.16
2022-11-16T00:11:09.395Z,97335.78
2022-11-16T00:13:41.693Z,97334.97
2022-11-16T00:19:21.233Z,97338.78
2022-11-16T00:21:50.367Z,97348.81
2022-11-16T00:24:37.025Z,97347.22
2022-11-16T00:27:20.874Z,97346.44
2022-11-16T00:36:35.832Z,97346.44
2022-11-16T00:42:30.496Z,97342.59
2022-11-16T00:45:01.114Z,97330.19
2022-11-16T00:47:38.310Z,97335.59
2022-11-16T00:50:07.127Z,97335.59
2022-11-16T00:52:33.727Z,97334.81
2022-11-16T00:55:00.079Z,97330.19
2022-11-16T00:57:26.421Z,97325.56
2022-11-16T00:59:52.822Z,97324.31
2022-11-16T01:02:19.161Z,97323.84
2022-11-16T01:04:45.551Z,97327.00
2022-11-16T01:07:12.089Z,97323.84
2022-11-16T01:09:38.566Z,97321.38
2022-11-16T01:12:10.858Z,97317.56
2022-11-16T01:14:39.562Z,97310.56
2022-11-16T01:17:06.382Z,97307.06
2022-11-16T01:19:33.098Z,97307.06
2022-11-16T01:21:59.964Z,97301.16
2022-11-16T01:24:27.502Z,97290.34
2022-11-16T01:26:58.111Z,97304.22
2022-11-16T01:29:26.151Z,97296.88
2022-11-16T01:31:52.536Z,97305.00
2022-11-16T01:34:19.183Z,97304.50
2022-11-16T01:36:45.586Z,97301.00
2022-11-16T01:39:13.242Z,97298.63
2022-11-16T01:41:40.550Z,97286.19
2022-11-16T01:44:32.403Z,97297.03
2022-11-16T01:47:05.686Z,97298.16
2022-11-16T01:49:35.054Z,97294.31
2022-11-16T01:52:10.238Z,97303.56
2022-11-16T01:54:40.170Z,97286.19
2022-11-16T01:57:14.677Z,97287.31
2022-11-16T01:59:44.027Z,97293.53
2022-11-16T02:02:10.405Z,97282.22
2022-11-16T02:04:36.850Z,97274.13
2022-11-16T02:07:03.238Z,97272.66
2022-11-16T02:09:53.588Z,97277.63
2022-11-16T02:12:46.268Z,97280.78
2022-11-16T02:15:15.579Z,97280.78
2022-11-16T02:18:06.208Z,97283.03
2022-11-16T02:20:47.646Z,97275.22
2022-11-16T02:23:45.689Z,97266.28
2022-11-16T02:26:47.861Z,97272.19
2022-11-16T02:29:23.296Z,97272.19
2022-11-16T02:31:52.469Z,97271.41
2022-11-16T02:34:22.763Z,97279.03
2022-11-16T02:36:54.177Z,97271.22
2022-11-16T02:39:27.183Z,97255.66
2022-11-16T02:41:55.235Z,97261.06
2022-11-16T02:44:28.616Z,97266.78
2022-11-16T02:46:59.157Z,97261.06
2022-11-16T02:49:27.819Z,97259.47
2022-11-16T02:55:08.052Z,97270.31
2022-11-16T03:01:11.847Z,97263.94
2022-11-16T03:03:48.069Z,97275.22
2022-11-16T03:06:41.563Z,97271.72
2022-11-16T03:09:21.212Z,97261.69
2022-11-16T03:12:03.152Z,97259.78
2022-11-16T03:15:19.763Z,97257.84
2022-11-16T03:18:01.377Z,97255.66
2022-11-16T03:34:22.339Z,97255.16
2022-11-16T03:37:06.837Z,97249.75
2022-11-16T03:39:44.314Z,97251.31
2022-11-16T03:42:29.396Z,97246.69
2022-11-16T03:45:01.450Z,97238.25
2022-11-16T03:47:30.051Z,97237.47
2022-11-16T03:49:58.207Z,97237.47
2022-11-16T03:52:32.884Z,97239.50
2022-11-16T03:55:13.876Z,97236.19
2022-11-16T03:57:42.076Z,97230.09
2022-11-16T04:00:20.608Z,97240.66
2022-11-16T04:02:50.626Z,97239.53
2022-11-16T04:05:37.113Z,97244.63
2022-11-16T04:08:48.008Z,97261.34
2022-11-16T04:11:40.848Z,97276.31
2022-11-16T04:14:50.250Z,97275.03
2022-11-16T04:21:48.518Z,97286.97
2022-11-16T04:24:27.376Z,97290.31
2022-11-16T04:27:29.002Z,97296.41
2022-11-16T04:30:22.342Z,97304.69
2022-11-16T04:33:17.361Z,97308.38
2022-11-16T04:36:28.509Z,97305.78
2022-11-16T04:39:04.807Z,97296.72
2022-11-16T04:42:07.779Z,97283.50
2022-11-16T04:45:07.292Z,97286.53
2022-11-16T04:48:31.639Z,97295.44
2022-11-16T04:51:08.816Z,97300.88
2022-11-16T04:57:10.716Z,97297.03
2022-11-16T05:00:12.595Z,97292.75
2022-11-16T05:03:10.750Z,97290.50
2022-11-16T05:05:50.904Z,97289.38
2022-11-16T05:08:44.590Z,97276.97
2022-11-16T05:11:32.267Z,97270.75
2022-11-16T05:14:14.199Z,97280.78
2022-11-16T05:17:48.046Z,97286.19
2022-11-16T05:21:17.088Z,97281.91
2022-11-16T05:24:07.718Z,97283.03
2022-11-16T05:26:43.927Z,97285.75
2022-11-16T05:30:23.621Z,97288.44
2022-11-16T05:33:02.065Z,97293.84
2022-11-16T05:35:39.565Z,97293.06
2022-11-16T05:38:37.763Z,97298.47
2022-11-16T05:41:08.825Z,97296.91
2022-11-16T05:43:40.223Z,97303.09
2022-11-16T05:46:16.909Z,97305.31
2022-11-16T05:48:47.614Z,97292.91
2022-11-16T05:51:40.229Z,97291.63
2022-11-16T05:54:49.986Z,97286.53
2022-11-16T05:57:38.472Z,97293.53
2022-11-16T06:00:12.044Z,97295.13
2022-11-16T06:03:05.234Z,97297.84
2022-11-16T06:05:44.115Z,97298.97
2022-11-16T06:08:37.832Z,97301.34
2022-11-16T06:11:25.164Z,97295.75
2022-11-16T06:14:20.887Z,97293.72
2022-11-16T06:17:33.198Z,97295.94
2022-11-16T06:20:59.078Z,97300.88
2022-11-16T06:26:27.552Z,97308.03
2022-11-16T06:29:06.485Z,97313.13
2022-11-16T06:31:36.619Z,97317.91
2022-11-16T06:34:12.349Z,97319.97
2022-11-16T06:36:46.198Z,97326.97
2022-11-16T06:39:34.251Z,97325.84
2022-11-16T06:42:10.785Z,97333.34
2022-11-16T06:44:41.834Z,97331.91
2022-11-16T06:47:39.105Z,97334.00
2022-11-16T06:50:14.322Z,97331.75
2022-11-16T06:52:50.354Z,97339.56
2022-11-16T06:55:28.175Z,97338.97
2022-11-16T06:58:02.606Z,97342.13
2022-11-16T07:00:42.105Z,97350.25
2022-11-16T07:03:16.442Z,97348.69
2022-11-16T07:05:44.096Z,97354.09
2022-11-16T07:11:04.047Z,97358.72
2022-11-16T07:13:51.960Z,97364.13
2022-11-16T07:16:22.720Z,97368.75
2022-11-16T07:19:09.898Z,97373.06
2022-11-16T07:21:47.038Z,97370.34
2022-11-16T07:24:45.674Z,97390.56
2022-11-16T07:27:14.773Z,97386.75
2022-11-16T07:29:58.480Z,97394.56
2022-11-16T07:32:37.653Z,97382.75
2022-11-16T07:35:06.194Z,97387.84
2022-11-16T07:37:35.384Z,97385.63
2022-11-16T07:40:09.660Z,97384.97
2022-11-16T07:42:42.107Z,97393.59
2022-11-16T07:45:14.906Z,97393.75
2022-11-16T07:47:42.662Z,97399.81
2022-11-16T07:50:11.931Z,97403.94
2022-11-16T07:52:48.339Z,97399.97
2022-11-16T07:55:34.135Z,97390.53
2022-11-16T07:58:28.048Z,97401.19
2022-11-16T08:01:13.356Z,97413.94
2022-11-16T08:06:32.321Z,97412.66
2022-11-16T08:09:28.014Z,97405.00
2022-11-16T08:12:34.864Z,97409.78
2022-11-16T08:15:06.793Z,97408.66
2022-11-16T08:17:44.733Z,97409.78
2022-11-16T08:20:37.452Z,97410.56
2022-11-16T08:26:33.944Z,97409.44
2022-11-16T08:29:10.678Z,97400.63
2022-11-16T08:32:19.168Z,97409.72
2022-11-16T08:35:38.110Z,97414.66
2022-11-16T08:38:11.675Z,97413.53
2022-11-16T08:40:58.191Z,97406.81
2022-11-16T08:43:55.609Z,97406.78
2022-11-16T08:46:33.415Z,97413.94
2022-11-16T08:49:55.729Z,97417.91
2022-11-16T08:52:34.371Z,97414.53
2022-11-16T08:55:22.797Z,97413.28
2022-11-16T08:58:11.101Z,97426.06
2022-11-16T09:01:24.947Z,97439.63
2022-11-16T09:04:04.608Z,97436.25
2022-11-16T09:06:37.837Z,97440.53
2022-11-16T09:09:06.545Z,97442.81
2022-11-16T09:11:35.172Z,97431.16
2022-11-16T09:14:06.679Z,97439.94
2022-11-16T09:16:39.273Z,97441.25
2022-11-16T09:19:15.362Z,97441.41
2022-11-16T09:27:52.475Z,97429.41
2022-11-16T09:30:29.148Z,97432.59
2022-11-16T09:33:05.516Z,97431.94
2022-11-16T09:39:03.210Z,97436.81
2022-11-16T09:41:39.975Z,97440.78
2022-11-16T09:44:36.092Z,97439.31
2022-11-16T09:47:07.252Z,97441.91
2022-11-16T09:49:43.234Z,97438.81
2022-11-16T09:52:19.726Z,97441.53
2022-11-16T09:54:49.884Z,97446.56
2022-11-16T09:57:26.374Z,97455.22
2022-11-16T10:00:03.052Z,97454.41
2022-11-16T10:02:44.405Z,97447.34
2022-11-16T10:05:28.870Z,97455.44
2022-11-16T10:08:43.937Z,97439.75
2022-11-16T10:11:43.336Z,97439.91
2022-11-16T10:14:34.348Z,97442.28
2022-11-16T10:17:23.923Z,97444.88
2022-11-16T10:20:12.672Z,97440.41
2022-11-16T10:23:10.988Z,97433.19
2022-11-16T10:25:47.410Z,97427.22
2022-11-16T10:31:53.470Z,97420.31
2022-11-16T10:34:29.217Z,97425.75
2022-11-16T10:37:09.921Z,97433.53
2022-11-16T10:39:41.361Z,97421.16
2022-11-16T10:42:17.480Z,97417.66
2022-11-16T10:48:33.139Z,97400.50
2022-11-16T10:51:24.875Z,97398.09
2022-11-16T10:54:14.673Z,97395.53
2022-11-16T10:56:48.570Z,97394.06
2022-11-16T11:00:12.514Z,97381.47
2022-11-16T11:02:56.833Z,97383.16
2022-11-16T11:05:27.843Z,97378.28
2022-11-16T11:08:05.946Z,97378.56
2022-11-16T11:10:52.464Z,97380.72
2022-11-16T11:13:37.334Z,97375.13
2022-11-16T11:16:19.909Z,97371.94
2022-11-16T11:18:52.026Z,97367.72
2022-11-16T11:21:26.388Z,97370.53
2022-11-16T11:24:29.427Z,97368.34
2022-11-16T11:27:16.404Z,97364.59
2022-11-16T11:32:41.369Z,97368.22
2022-11-16T11:35:34.103Z,97368.06
2022-11-16T11:38:08.174Z,97356.75
2022-11-16T11:40:39.516Z,97354.38
2022-11-16T11:43:25.639Z,97362.03
2022-11-16T11:46:11.137Z,97362.38
2022-11-16T11:49:07.119Z,97363.06
2022-11-16T11:55:06.508Z,97363.38
2022-11-16T11:58:22.879Z,97369.94
2022-11-16T12:04:47.156Z,97365.97
2022-11-16T12:07:29.045Z,97362.47
2022-11-16T12:10:21.154Z,97355.91
2022-11-16T12:13:36.295Z,97352.50
2022-11-16T12:16:36.679Z,97346.53
2022-11-16T12:19:28.891Z,97347.44
2022-11-16T12:22:08.692Z,97343.75
2022-11-16T12:24:36.866Z,97348.16
2022-11-16T12:27:55.908Z,97335.81
2022-11-16T12:30:31.738Z,97333.59
2022-11-16T12:33:27.301Z,97341.75
2022-11-16T12:39:04.731Z,97332.91
2022-11-16T12:42:02.329Z,97339.03
2022-11-16T12:45:15.424Z,97334.25
2022-11-16T12:48:07.660Z,97328.47
2022-11-16T12:51:21.787Z,97327.25
2022-11-16T12:57:44.495Z,97311.38
2022-11-16T13:04:24.621Z,97323.41
2022-11-16T13:12:06.984Z,97318.47
2022-11-16T13:16:46.502Z,97315.50
2022-11-16T13:22:04.945Z,97312.88
2022-11-16T13:29:04.165Z,97302.69
2022-11-16T13:31:45.987Z,97304.59
2022-11-16T13:34:43.219Z,97300.16
2022-11-16T13:37:38.394Z,97296.88
2022-11-16T13:40:09.688Z,97290.16
2022-11-16T13:43:01.172Z,97290.28
2022-11-16T13:45:43.935Z,97290.50
2022-11-16T13:48:27.673Z,97300.22
2022-11-16T13:51:10.075Z,97290.94
2022-11-16T13:56:56.399Z,97283.91
2022-11-16T13:59:47.119Z,97283.03
2022-11-16T14:05:58.824Z,97295.34
2022-11-16T14:08:49.724Z,97290.59
2022-11-16T14:11:37.842Z,97287.28
2022-11-16T14:14:16.094Z,97286.06
2022-11-16T14:16:49.894Z,97283.34
2022-11-16T14:19:45.607Z,97278.25
2022-11-16T14:22:34.059Z,97275.53
2022-11-16T14:25:14.981Z,97277.38
2022-11-16T14:28:03.563Z,97264.69
2022-11-16T14:30:50.955Z,97264.00
2022-11-16T14:33:32.820Z,97256.31
2022-11-16T14:36:06.705Z,97255.81
2022-11-16T14:38:43.378Z,97252.53
2022-11-16T14:41:23.622Z,97252.44
2022-11-16T14:43:59.998Z,97244.97
2022-11-16T14:46:38.481Z,97242.00
2022-11-16T14:49:14.041Z,97251.97
2022-11-16T14:51:55.062Z,97251.06
2022-11-16T14:54:46.198Z,97234.50
2022-11-16T14:57:23.235Z,97227.25
2022-11-16T15:00:24.514Z,97226.22
2022-11-16T15:03:02.116Z,97233.78
2022-11-16T15:05:45.435Z,97227.13
2022-11-16T15:08:48.007Z,97231.63
2022-11-16T15:11:45.958Z,97229.25
2022-11-16T15:14:21.420Z,97226.41
2022-11-16T15:16:55.316Z,97228.66
2022-11-16T15:19:25.938Z,97239.88
2022-11-16T15:21:59.143Z,97240.88
2022-11-16T15:30:41.416Z,97237.75
2022-11-16T15:33:17.901Z,97234.69
2022-11-16T15:35:45.959Z,97236.97
2022-11-16T15:38:36.220Z,97230.16
2022-11-16T15:41:08.788Z,97228.75
2022-11-16T15:44:15.562Z,97226.53
2022-11-16T15:46:59.348Z,97220.66
2022-11-16T15:53:05.173Z,97215.25
2022-11-16T15:54:29.470Z,97222.59
2022-11-16T15:59:42.938Z,97215.63
2022-11-16T16:02:19.647Z,97230.75
2022-11-16T16:05:44.017Z,97226.81
2022-11-16T16:09:15.576Z,97222.44
2022-11-16T16:11:50.846Z,97209.94
2022-11-16T16:14:41.506Z,97215.75
2022-11-16T16:17:25.735Z,97211.63
2022-11-16T16:23:51.692Z,97217.44
2022-11-16T16:26:22.732Z,97236.63
2022-11-16T16:29:30.599Z,97220.06
2022-11-16T16:32:55.423Z,97217.06
2022-11-16T16:35:33.330Z,97231.91
2022-11-16T16:38:18.878Z,97229.38
2022-11-16T16:40:49.584Z,97222.22
2022-11-16T16:43:26.085Z,97219.38
2022-11-16T16:45:56.553Z,97213.00
2022-11-16T16:48:24.200Z,97205.53
2022-11-16T16:50:50.634Z,97208.09
2022-11-16T16:53:17.567Z,97213.84
2022-11-16T16:55:44.663Z,97206.34
2022-11-16T16:58:13.155Z,97205.88
2022-11-16T17:00:40.508Z,97196.00
2022-11-16T17:09:10.846Z,97188.75
2022-11-16T17:11:40.952Z,97195.13
2022-11-16T17:14:38.245Z,97192.28
2022-11-16T17:17:16.941Z,97196.41
2022-11-16T17:19:48.291Z,97191.78
2022-11-16T17:22:21.506Z,97190.53
2022-11-16T17:24:52.048Z,97185.28
2022-11-16T17:27:25.787Z,97181.63
2022-11-16T17:30:41.980Z,97182.59
2022-11-16T17:33:12.155Z,97184.84
2022-11-16T17:36:15.616Z,97181.34
2022-11-16T17:38:48.524Z,97177.34
2022-11-16T17:41:36.412Z,97173.84
2022-11-16T17:44:07.878Z,97173.84
2022-11-16T17:53:32.642Z,97167.97
2022-11-16T17:56:01.129Z,97159.06
2022-11-16T18:01:42.790Z,97158.56
2022-11-16T18:04:15.745Z,97164.91
2022-11-16T18:06:59.253Z,97169.19
2022-11-16T18:12:35.756Z,97155.16
2022-11-16T18:15:30.044Z,97150.56
2022-11-16T18:18:55.356Z,97157.56
2022-11-16T18:21:25.379Z,97151.84
2022-11-16T18:24:10.327Z,97152.97
2022-11-16T18:26:50.332Z,97142.44
2022-11-16T18:29:25.598Z,97138.94
2022-11-16T18:32:13.474Z,97134.63
2022-11-16T18:39:20.532Z,97122.22
2022-11-16T18:41:58.543Z,97124.94
2022-11-16T18:44:26.395Z,97109.34
2022-11-16T18:46:58.950Z,97104.72
2022-11-16T18:50:02.951Z,97103.16
2022-11-16T18:52:36.141Z,97089.91
2022-11-16T18:55:34.932Z,97085.97
2022-11-16T19:01:21.255Z,97079.28
2022-11-16T19:10:59.599Z,97073.63
2022-11-16T19:13:48.733Z,97078.09
2022-11-16T19:16:51.108Z,97076.19
2022-11-16T19:24:10.251Z,97082.09
2022-11-16T19:26:47.530Z,97079.88
2022-11-16T19:32:23.163Z,97071.78
2022-11-16T19:35:09.912Z,97074.50
2022-11-16T19:37:49.410Z,97079.41
2022-11-16T19:43:32.974Z,97067.16
2022-11-16T19:49:54.142Z,97087.50
2022-11-16T19:55:57.873Z,97083.84
2022-11-16T19:58:26.065Z,97087.81
2022-11-16T20:07:06.425Z,97105.59
2022-11-16T20:09:53.515Z,97097.97
2022-11-16T20:12:26.968Z,97115.94
2022-11-16T20:14:58.718Z,97117.06
2022-11-16T20:17:43.638Z,97103.22
2022-11-16T20:20:37.975Z,97088.47
2022-11-16T20:23:08.505Z,97066.19
2022-11-16T20:25:50.399Z,97052.69
2022-11-16T20:42:37.554Z,97044.09
2022-11-16T20:43:15.808Z,97034.41
2022-11-16T20:46:04.507Z,97033.59
2022-11-16T21:03:01.485Z,97044.56
2022-11-16T21:05:27.705Z,97037.28
2022-11-16T21:11:24.199Z,97032.81
2022-11-16T21:21:10.283Z,97006.53
2022-11-16T21:35:40.826Z,97007.50
2022-11-16T21:39:28.098Z,97011.31
2022-11-16T21:42:51.735Z,97009.09
2022-11-16T21:46:07.998Z,97007.81
2022-11-16T21:56:18.625Z,96994.34
2022-11-16T21:59:40.108Z,96999.41
2022-11-16T23:06:00.103Z,96957.03
2022-11-16T23:12:55.891Z,96947.84
2022-11-16T23:15:58.103Z,96946.22
2022-11-16T23:18:37.069Z,96947.19
2022-11-16T23:18:41.723Z,96951.63
2022-11-16T23:21:25.611Z,96939.44
2022-11-16T23:24:23.606Z,96938.63
2022-11-16T23:27:16.539Z,96941.81
2022-11-16T23:29:54.288Z,96943.38
2022-11-16T23:32:37.021Z,96942.75
2022-11-16T23:35:15.532Z,96932.75
2022-11-16T23:38:03.415Z,96933.53
2022-11-16T23:40:48.634Z,96928.94
2022-11-16T23:43:49.486Z,96918.94
2022-11-16T23:46:21.577Z,96903.53
2022-11-16T23:52:05.065Z,96903.53
2022-11-16T23:54:39.403Z,96891.94
2022-11-16T23:57:34.737Z,96892.72
